Time;durP1;ratioP1;P1;durP2;ratioP2;P2;SDS_P1;SDS_P2;PMS_P1;PMS_P2;Temp;Humidity;BMP_temperature;BMP_pressure;BME280_temperature;BME280_humidity;BME280_pressure;Samples;Min_cycle;Max_cycle;Signal;HPM_P1;HPM_P2
2022/04/20 00:01:42;;;;;;;3.90;2.87;;;12.00;99.90;;;;;;5060054;28;20615;-53
2022/04/20 00:04:11;;;;;;;6.20;2.83;;;12.10;99.90;;;;;;5059402;28;20283;-53
2022/04/20 00:06:38;;;;;;;3.67;2.50;;;12.00;99.90;;;;;;5057575;28;20196;-53
2022/04/20 00:09:05;;;;;;;3.83;2.70;;;11.70;99.90;;;;;;5060416;28;21553;-53
2022/04/20 00:11:32;;;;;;;5.60;2.63;;;11.80;99.90;;;;;;5039141;28;20188;-52
2022/04/20 00:13:59;;;;;;;3.23;2.53;;;11.90;99.90;;;;;;5043307;28;20619;-53
2022/04/20 00:16:26;;;;;;;3.23;2.73;;;12.00;99.90;;;;;;5058781;28;20210;-53
2022/04/20 00:18:53;;;;;;;3.03;2.30;;;11.90;99.90;;;;;;5059641;28;20200;-54
2022/04/20 00:21:25;;;;;;;3.13;2.57;;;12.00;99.90;;;;;;5055396;28;20678;-53
2022/04/20 00:23:54;;;;;;;4.43;2.77;;;11.80;99.90;;;;;;5057860;28;20271;-53
2022/04/20 00:26:21;;;;;;;4.93;2.90;;;11.70;99.90;;;;;;5062860;28;20636;-53
2022/04/20 00:28:47;;;;;;;4.30;3.00;;;11.60;99.90;;;;;;5060576;28;20916;-53
2022/04/20 00:31:14;;;;;;;4.13;2.77;;;11.50;99.90;;;;;;5056601;28;20479;-53
2022/04/20 00:33:41;;;;;;;5.47;3.00;;;11.50;99.90;;;;;;5060074;28;20200;-53
2022/04/20 00:36:09;;;;;;;4.80;3.00;;;11.60;99.90;;;;;;5055987;28;20341;-55
2022/04/20 00:38:36;;;;;;;4.10;2.83;;;11.60;99.90;;;;;;5058469;28;20551;-52
2022/04/20 00:41:03;;;;;;;5.63;3.30;;;11.60;99.90;;;;;;5056690;28;20238;-53
2022/04/20 00:43:29;;;;;;;5.37;3.23;;;11.50;99.90;;;;;;5053826;28;20298;-53
2022/04/20 00:45:59;;;;;;;5.87;3.03;;;11.50;99.90;;;;;;5042939;28;20723;-53
2022/04/20 00:48:27;;;;;;;5.00;3.00;;;11.40;99.90;;;;;;5054460;28;20196;-52
2022/04/20 00:50:54;;;;;;;4.30;2.93;;;11.50;99.90;;;;;;5055374;28;20577;-54
2022/04/20 00:53:21;;;;;;;4.60;3.43;;;11.50;99.90;;;;;;5054865;28;20231;-53
2022/04/20 00:55:48;;;;;;;3.77;3.33;;;11.30;99.90;;;;;;5059284;28;20235;-52
2022/04/20 00:58:14;;;;;;;4.83;3.07;;;11.40;99.90;;;;;;5057387;28;20230;-53
2022/04/20 01:00:41;;;;;;;6.90;3.57;;;11.30;99.90;;;;;;5059862;28;20188;-55
2022/04/20 01:03:08;;;;;;;6.40;3.53;;;11.30;99.90;;;;;;5059314;28;20656;-53
2022/04/20 01:05:35;;;;;;;6.27;3.40;;;11.30;99.90;;;;;;5060507;28;20231;-54
2022/04/20 01:08:03;;;;;;;6.03;3.77;;;11.30;99.90;;;;;;5057225;28;20602;-52
2022/04/20 01:10:30;;;;;;;6.33;3.43;;;11.30;99.90;;;;;;5057896;28;20256;-52
2022/04/20 01:12:57;;;;;;;3.77;3.37;;;11.20;99.90;;;;;;5059805;28;20249;-53
2022/04/20 01:15:24;;;;;;;4.93;3.30;;;11.10;99.90;;;;;;5054530;28;20726;-52
2022/04/20 01:17:51;;;;;;;4.73;3.27;;;11.10;99.90;;;;;;5054575;28;20218;-53
2022/04/20 01:20:18;;;;;;;4.17;3.57;;;11.20;99.90;;;;;;5056930;28;20238;-55
2022/04/20 01:22:45;;;;;;;4.73;3.50;;;11.20;99.90;;;;;;5056126;28;20333;-54
2022/04/20 01:25:13;;;;;;;9.43;4.53;;;11.10;99.90;;;;;;5059163;28;20219;-53
2022/04/20 01:27:43;;;;;;;4.47;3.97;;;11.00;99.90;;;;;;5059500;28;20263;-54
2022/04/20 01:30:10;;;;;;;4.47;3.50;;;11.10;99.90;;;;;;5057868;28;20704;-53
2022/04/20 01:32:38;;;;;;;6.40;3.87;;;11.00;99.90;;;;;;5036471;28;20204;-51
2022/04/20 01:35:05;;;;;;;5.23;3.60;;;10.90;99.90;;;;;;5043782;28;20497;-54
2022/04/20 01:37:32;;;;;;;4.33;3.60;;;11.00;99.90;;;;;;5055172;28;20669;-55
2022/04/20 01:39:59;;;;;;;4.77;3.90;;;11.00;99.90;;;;;;5052554;28;20195;-54
2022/04/20 01:42:26;;;;;;;4.30;3.90;;;11.00;99.90;;;;;;5060037;28;20288;-52
2022/04/20 01:44:52;;;;;;;5.40;3.97;;;11.00;99.90;;;;;;5058061;28;20310;-54
2022/04/20 01:47:19;;;;;;;5.47;3.43;;;11.00;99.90;;;;;;5056514;28;20282;-53
2022/04/20 01:49:46;;;;;;;4.80;3.97;;;10.90;99.90;;;;;;5053866;28;20344;-53
2022/04/20 01:52:13;;;;;;;7.53;3.83;;;11.00;99.90;;;;;;5043660;28;20254;-52
2022/04/20 01:54:39;;;;;;;4.70;3.47;;;11.00;99.90;;;;;;5056846;28;20615;-53
2022/04/20 01:57:06;;;;;;;6.30;3.80;;;11.00;99.90;;;;;;5039573;28;20239;-55
2022/04/20 01:59:33;;;;;;;4.30;3.50;;;10.90;99.90;;;;;;5058625;28;20311;-54
2022/04/20 02:04:45;;;;;;;4.73;3.83;;;10.90;99.90;;;;;;5052336;28;20217;-53
2022/04/20 02:07:12;;;;;;;4.53;3.87;;;10.90;99.90;;;;;;5058989;28;20203;-53
2022/04/20 02:09:39;;;;;;;6.23;3.60;;;10.90;99.90;;;;;;5058322;28;20192;-53
2022/04/20 02:12:07;;;;;;;4.77;3.47;;;10.90;99.90;;;;;;5056772;28;20678;-53
2022/04/20 02:14:34;;;;;;;4.40;3.70;;;11.00;99.90;;;;;;5058867;28;20647;-54
2022/04/20 02:17:01;;;;;;;5.47;4.00;;;10.90;99.90;;;;;;5057972;28;20651;-54
2022/04/20 02:19:28;;;;;;;4.23;3.07;;;10.80;99.90;;;;;;5056050;28;20206;-53
2022/04/20 02:21:55;;;;;;;11.97;3.23;;;10.90;99.90;;;;;;5055357;28;20240;-54
2022/04/20 02:24:22;;;;;;;4.80;3.73;;;10.90;99.90;;;;;;5053753;28;20211;-54
2022/04/20 02:26:48;;;;;;;3.57;2.97;;;10.90;99.90;;;;;;5056069;28;20282;-53
2022/04/20 02:29:15;;;;;;;5.87;2.93;;;10.90;99.90;;;;;;5057600;28;20297;-52
2022/04/20 02:31:42;;;;;;;4.00;2.90;;;10.80;99.90;;;;;;5060149;28;20562;-53
2022/04/20 02:34:09;;;;;;;4.17;2.70;;;10.80;99.90;;;;;;5040159;28;20226;-53
2022/04/20 02:36:36;;;;;;;5.13;2.97;;;10.90;99.90;;;;;;5054327;28;20266;-53
2022/04/20 02:39:04;;;;;;;3.93;2.93;;;10.70;99.90;;;;;;5054761;28;21097;-51
2022/04/20 02:41:32;;;;;;;4.87;3.00;;;10.80;99.90;;;;;;5051386;28;20901;-53
2022/04/20 02:43:59;;;;;;;5.80;3.50;;;10.80;99.90;;;;;;5036782;28;20199;-53
2022/04/20 02:46:26;;;;;;;4.10;2.97;;;10.90;99.90;;;;;;5057627;28;20232;-55
2022/04/20 02:48:53;;;;;;;3.10;2.60;;;10.80;99.90;;;;;;5059141;28;20238;-54
2022/04/20 02:51:20;;;;;;;3.33;2.90;;;10.50;99.90;;;;;;5056961;28;20282;-53
2022/04/20 02:53:47;;;;;;;3.27;2.90;;;10.70;99.90;;;;;;5060295;28;20206;-54
2022/04/20 02:56:14;;;;;;;4.93;3.10;;;10.70;99.90;;;;;;5058775;28;20207;-54
2022/04/20 02:58:40;;;;;;;4.20;3.10;;;10.70;99.90;;;;;;5061945;28;20200;-53
2022/04/20 03:01:07;;;;;;;3.00;2.57;;;10.60;99.90;;;;;;5063171;28;20255;-54
2022/04/20 03:03:34;;;;;;;3.57;3.10;;;10.60;99.90;;;;;;5043674;28;20286;-54
2022/04/20 03:06:01;;;;;;;4.73;3.43;;;10.60;99.90;;;;;;5058468;28;20362;-53
2022/04/20 03:08:28;;;;;;;5.23;3.10;;;10.60;99.90;;;;;;5063757;28;20191;-53
2022/04/20 03:10:56;;;;;;;4.47;3.60;;;10.50;99.90;;;;;;5063182;28;20285;-54
2022/04/20 03:13:23;;;;;;;4.57;3.67;;;10.60;99.90;;;;;;5059714;28;20202;-53
2022/04/20 03:15:50;;;;;;;3.87;3.30;;;10.50;99.90;;;;;;5060066;28;20237;-54
2022/04/20 03:18:17;;;;;;;3.50;3.20;;;10.40;99.90;;;;;;5060074;28;20228;-53
2022/04/20 03:20:44;;;;;;;4.37;2.90;;;10.60;99.90;;;;;;5058483;28;20728;-53
2022/04/20 03:23:12;;;;;;;3.33;2.60;;;10.60;99.90;;;;;;5059882;28;20361;-54
2022/04/20 03:25:41;;;;;;;5.83;4.57;;;10.40;99.90;;;;;;5059468;28;20306;-52
2022/04/20 03:28:08;;;;;;;3.70;3.20;;;10.50;99.90;;;;;;5061551;28;20364;-54
2022/04/20 03:30:38;;;;;;;4.60;3.30;;;10.40;99.90;;;;;;5060729;28;20689;-53
2022/04/20 03:33:06;;;;;;;4.93;3.23;;;10.50;99.90;;;;;;5060439;28;20210;-53
2022/04/20 03:35:32;;;;;;;4.17;3.37;;;10.60;99.90;;;;;;5060102;28;20839;-53
2022/04/20 03:37:59;;;;;;;3.73;2.80;;;10.60;99.90;;;;;;5062412;28;20207;-53
2022/04/20 03:40:26;;;;;;;6.60;3.30;;;10.60;99.90;;;;;;5060028;28;20377;-53
2022/04/20 03:42:53;;;;;;;4.60;3.10;;;10.60;99.90;;;;;;5057885;28;20745;-53
2022/04/20 03:45:20;;;;;;;4.57;3.13;;;10.50;99.90;;;;;;5060767;28;20305;-51
2022/04/20 03:47:46;;;;;;;6.03;3.23;;;10.50;99.90;;;;;;5056592;28;20614;-53
2022/04/20 03:50:17;;;;;;;6.30;3.27;;;10.50;99.90;;;;;;5058642;28;20215;-53
2022/04/20 03:52:44;;;;;;;3.73;3.13;;;10.40;99.90;;;;;;5063747;28;20221;-53
2022/04/20 03:55:11;;;;;;;4.50;3.13;;;10.40;99.90;;;;;;5059936;28;20629;-54
2022/04/20 03:57:38;;;;;;;5.93;3.33;;;10.30;99.90;;;;;;5042117;28;20286;-54
2022/04/20 04:00:06;;;;;;;4.83;3.13;;;10.20;99.90;;;;;;5058052;28;20234;-53
2022/04/20 04:02:33;;;;;;;4.67;3.10;;;10.20;99.90;;;;;;5062553;28;20617;-53
2022/04/20 04:05:00;;;;;;;4.07;3.10;;;10.30;99.90;;;;;;5059258;28;20869;-52
2022/04/20 04:07:27;;;;;;;6.00;3.70;;;10.30;99.90;;;;;;5059648;28;20574;-54
2022/04/20 04:09:54;;;;;;;4.07;3.67;;;10.40;99.90;;;;;;5060615;28;20232;-53
2022/04/20 04:12:24;;;;;;;4.63;2.93;;;10.40;99.90;;;;;;5057824;28;20205;-53
2022/04/20 04:14:51;;;;;;;4.63;3.10;;;10.30;99.90;;;;;;5058869;28;20227;-52
2022/04/20 04:17:18;;;;;;;7.53;3.20;;;10.40;99.90;;;;;;5061271;28;20658;-55
2022/04/20 04:19:46;;;;;;;4.50;3.23;;;10.30;99.90;;;;;;5055781;28;20204;-54
2022/04/20 04:22:13;;;;;;;4.63;3.33;;;10.20;99.90;;;;;;5058545;28;20229;-53
2022/04/20 04:24:40;;;;;;;4.87;3.10;;;10.20;99.90;;;;;;5042750;28;20824;-52
2022/04/20 04:27:09;;;;;;;4.33;3.13;;;10.20;99.90;;;;;;5055884;28;20231;-53
2022/04/20 04:29:38;;;;;;;5.97;3.73;;;10.20;99.90;;;;;;5057271;28;20207;-53
2022/04/20 04:32:06;;;;;;;4.40;3.60;;;10.10;99.90;;;;;;5063039;28;20926;-54
2022/04/20 04:34:33;;;;;;;6.67;3.13;;;10.20;99.90;;;;;;5058001;28;20286;-53
2022/04/20 04:37:00;;;;;;;5.93;3.23;;;10.10;99.90;;;;;;5055653;28;20889;-51
2022/04/20 04:39:28;;;;;;;5.97;3.47;;;10.20;99.90;;;;;;5055738;28;20202;-52
2022/04/20 04:41:56;;;;;;;5.50;3.20;;;10.20;99.90;;;;;;5058695;28;20248;-53
2022/04/20 04:44:23;;;;;;;3.40;3.10;;;10.30;99.90;;;;;;5058763;28;20201;-51
2022/04/20 04:49:35;;;;;;;6.60;3.50;;;10.30;99.90;;;;;;5057137;28;20230;-52
2022/04/20 04:52:04;;;;;;;5.63;3.40;;;10.30;99.90;;;;;;5061258;28;20229;-52
2022/04/20 04:54:33;;;;;;;4.23;3.20;;;10.10;99.90;;;;;;5058589;28;20210;-52
2022/04/20 04:57:00;;;;;;;4.37;3.27;;;10.20;99.90;;;;;;5056810;28;20294;-52
2022/04/20 04:59:27;;;;;;;4.10;3.47;;;10.20;99.90;;;;;;5039536;28;20195;-54
2022/04/20 05:01:54;;;;;;;3.87;3.13;;;10.20;99.90;;;;;;5055619;28;20245;-53
2022/04/20 05:04:21;;;;;;;4.37;3.20;;;10.10;99.90;;;;;;5054527;28;20605;-53
2022/04/20 05:06:48;;;;;;;4.77;3.27;;;10.10;99.90;;;;;;5035832;28;20268;-53
2022/04/20 05:09:14;;;;;;;4.87;3.57;;;10.20;99.90;;;;;;5054644;28;20202;-53
2022/04/20 05:11:42;;;;;;;5.37;3.40;;;10.20;99.90;;;;;;5053937;28;20195;-52
2022/04/20 05:14:12;;;;;;;5.20;3.33;;;10.10;99.90;;;;;;5059820;28;20803;-51
2022/04/20 05:16:39;;;;;;;4.83;3.40;;;10.10;99.90;;;;;;5060660;28;20204;-59
2022/04/20 05:19:06;;;;;;;7.43;4.33;;;10.00;99.90;;;;;;5041935;28;20207;-52
2022/04/20 05:21:33;;;;;;;8.33;3.80;;;10.00;99.90;;;;;;5058442;28;20257;-52
2022/04/20 05:24:00;;;;;;;6.23;3.63;;;9.80;99.90;;;;;;5055090;28;20198;-53
2022/04/20 05:26:26;;;;;;;4.53;3.70;;;9.80;99.90;;;;;;5056259;28;20299;-52
2022/04/20 05:28:53;;;;;;;5.87;3.50;;;9.80;99.90;;;;;;5058759;28;20296;-52
2022/04/20 05:31:20;;;;;;;6.13;3.80;;;9.70;99.90;;;;;;5062889;28;20195;-53
2022/04/20 05:33:47;;;;;;;6.23;3.77;;;9.60;99.90;;;;;;5055703;28;20201;-52
2022/04/20 05:36:14;;;;;;;5.30;4.07;;;9.70;99.90;;;;;;5062695;28;20259;-52
2022/04/20 05:41:48;;;;;;;6.13;4.37;;;9.70;99.90;;;;;;5060542;28;20203;-52
2022/04/20 05:44:13;;;;;;;4.13;3.27;;;9.80;99.90;;;;;;5054965;28;20300;-52
2022/04/20 05:46:41;;;;;;;6.27;3.67;;;9.80;99.90;;;;;;5058880;28;20268;-52
2022/04/20 05:49:08;;;;;;;5.13;3.77;;;9.90;99.90;;;;;;5056372;28;20198;-52
2022/04/20 05:51:35;;;;;;;6.43;3.80;;;10.10;99.90;;;;;;5060813;28;20202;-52
2022/04/20 05:54:03;;;;;;;3.57;3.27;;;10.20;99.90;;;;;;5059747;28;20241;-53
2022/04/20 05:56:29;;;;;;;5.23;3.83;;;10.20;99.90;;;;;;5058329;28;20826;-53
2022/04/20 05:58:57;;;;;;;7.77;3.33;;;10.30;99.90;;;;;;5054705;28;20207;-53
2022/04/20 06:01:26;;;;;;;6.83;3.70;;;10.40;99.90;;;;;;5057979;28;20252;-52
2022/04/20 06:03:53;;;;;;;4.27;2.87;;;10.50;99.90;;;;;;5056651;28;20213;-53
2022/04/20 06:06:20;;;;;;;4.50;3.30;;;10.50;99.90;;;;;;5056824;28;20245;-52
2022/04/20 06:08:47;;;;;;;4.33;2.73;;;10.40;99.90;;;;;;5059128;28;20236;-53
2022/04/20 06:11:14;;;;;;;3.47;2.70;;;10.60;99.90;;;;;;5055854;28;20272;-53
2022/04/20 06:13:41;;;;;;;5.23;3.43;;;10.60;99.90;;;;;;5052250;28;20283;-52
2022/04/20 06:16:08;;;;;;;4.57;2.93;;;10.70;99.90;;;;;;5058745;28;20631;-52
2022/04/20 06:18:35;;;;;;;5.43;2.90;;;10.80;99.90;;;;;;5055161;28;20656;-53
2022/04/20 06:21:02;;;;;;;4.57;3.13;;;11.00;99.90;;;;;;5058012;28;20244;-53
2022/04/20 06:23:29;;;;;;;9.07;3.80;;;10.90;99.90;;;;;;5056843;28;20583;-52
2022/04/20 06:25:56;;;;;;;4.23;2.80;;;11.00;99.90;;;;;;5058377;28;20219;-52
2022/04/20 06:28:25;;;;;;;5.47;3.87;;;11.10;99.90;;;;;;5041585;28;20720;-52
2022/04/20 06:30:55;;;;;;;3.93;2.80;;;11.40;99.90;;;;;;5061937;28;20206;-52
2022/04/20 06:33:23;;;;;;;7.23;3.40;;;11.60;99.90;;;;;;5054154;28;20204;-53
2022/04/20 06:35:51;;;;;;;5.40;3.30;;;11.50;99.90;;;;;;5056991;28;20195;-54
2022/04/20 06:38:17;;;;;;;7.77;3.60;;;11.70;99.90;;;;;;5062326;28;20264;-53
2022/04/20 06:40:44;;;;;;;4.03;3.20;;;11.90;99.90;;;;;;5063048;28;20199;-53
2022/04/20 06:43:11;;;;;;;5.30;3.63;;;11.90;99.90;;;;;;5064409;28;20256;-53
2022/04/20 06:45:38;;;;;;;7.53;3.73;;;12.00;99.90;;;;;;5058638;28;22445;-52
2022/04/20 06:48:05;;;;;;;3.90;3.20;;;12.10;99.90;;;;;;5056758;28;20199;-52
2022/04/20 06:50:32;;;;;;;5.03;3.40;;;12.20;99.90;;;;;;5054755;28;20288;-52
2022/04/20 06:58:32;;;;;;;6.10;3.20;;;12.80;99.90;;;;;;5060793;28;20239;-53
2022/04/20 07:00:59;;;;;;;4.00;2.90;;;13.10;99.90;;;;;;5056726;28;20196;-53
2022/04/20 07:03:27;;;;;;;3.47;2.90;;;13.10;99.90;;;;;;5061208;28;20215;-52
2022/04/20 07:05:54;;;;;;;5.10;2.90;;;13.20;99.90;;;;;;5053681;28;20223;-52
2022/04/20 07:08:22;;;;;;;5.03;2.87;;;13.50;99.90;;;;;;5060073;28;20213;-53
2022/04/20 07:10:49;;;;;;;4.50;2.90;;;13.60;99.90;;;;;;5057441;28;20226;-52
2022/04/20 07:13:17;;;;;;;6.63;3.13;;;13.80;99.90;;;;;;5062538;28;20200;-53
2022/04/20 07:15:44;;;;;;;10.00;5.77;;;13.70;99.90;;;;;;5064733;28;20668;-53
2022/04/20 07:18:12;;;;;;;4.80;2.60;;;14.10;99.90;;;;;;5066811;28;20644;-53
2022/04/20 07:20:40;;;;;;;5.53;3.20;;;14.00;99.90;;;;;;5060112;28;20202;-52
2022/04/20 07:23:07;;;;;;;3.40;3.03;;;14.20;99.90;;;;;;5068011;28;20701;-53
2022/04/20 07:25:34;;;;;;;4.50;3.20;;;14.20;99.90;;;;;;5050514;28;20637;-53
2022/04/20 07:28:00;;;;;;;4.90;3.13;;;14.20;99.90;;;;;;5048001;28;20224;-53
2022/04/20 07:30:27;;;;;;;4.47;3.10;;;14.30;99.90;;;;;;5066826;28;20277;-52
2022/04/20 07:32:54;;;;;;;4.00;3.07;;;14.30;99.90;;;;;;5064260;28;20558;-53
2022/04/20 07:35:21;;;;;;;4.93;3.20;;;14.30;99.90;;;;;;5067996;28;20200;-53
2022/04/20 07:37:48;;;;;;;5.27;2.77;;;14.60;99.90;;;;;;5066972;28;20194;-52
2022/04/20 07:40:15;;;;;;;3.10;2.80;;;14.70;99.90;;;;;;5066410;28;20241;-53
2022/04/20 07:42:42;;;;;;;3.83;2.87;;;14.40;99.90;;;;;;5068707;28;20218;-53
2022/04/20 07:45:10;;;;;;;4.17;2.87;;;14.90;99.90;;;;;;5072002;28;20202;-53
2022/04/20 07:47:37;;;;;;;5.20;3.07;;;14.60;99.90;;;;;;5069928;28;20232;-53
2022/04/20 07:50:21;;;;;;;4.70;3.07;;;14.30;99.90;;;;;;5070044;28;20244;-53
2022/04/20 07:52:54;;;;;;;4.93;2.80;;;14.30;99.90;;;;;;5075053;28;20242;-53
2022/04/20 07:55:32;;;;;;;5.73;2.90;;;14.60;99.90;;;;;;5068815;28;20203;-53
2022/04/20 07:58:00;;;;;;;3.87;3.03;;;14.60;99.90;;;;;;5068692;28;20205;-52
2022/04/20 08:00:28;;;;;;;6.97;2.60;;;14.70;99.90;;;;;;5072210;28;20214;-54
2022/04/20 08:03:12;;;;;;;4.87;2.77;;;14.70;99.90;;;;;;5066706;28;20634;-55
2022/04/20 08:05:40;;;;;;;5.30;2.80;;;14.60;99.90;;;;;;5067222;28;20321;-52
2022/04/20 08:08:08;;;;;;;3.77;2.80;;;14.50;99.90;;;;;;5065591;28;20326;-52
2022/04/20 08:10:36;;;;;;;4.03;3.13;;;14.90;99.90;;;;;;5068282;28;20276;-53
2022/04/20 08:14:09;;;;;;;3.50;2.73;;;15.20;99.90;;;;;;5068786;28;20202;-52
2022/04/20 08:15:51;;;;;;;4.03;2.73;;;15.30;99.90;;;;;;5075542;28;20611;-52
2022/04/20 08:18:18;;;;;;;2.70;2.50;;;15.60;99.90;;;;;;5076201;28;20617;-52
2022/04/20 08:20:45;;;;;;;3.30;2.50;;;15.50;99.90;;;;;;5070083;28;20192;-52
2022/04/20 08:23:13;;;;;;;5.10;2.90;;;15.60;99.90;;;;;;5076339;28;20237;-53
2022/04/20 08:25:40;;;;;;;4.87;2.97;;;16.00;99.90;;;;;;5074271;28;20304;-53
2022/04/20 08:28:08;;;;;;;3.30;2.60;;;15.80;99.90;;;;;;5068044;28;20267;-52
2022/04/20 08:30:36;;;;;;;4.23;2.60;;;16.00;99.90;;;;;;5075050;28;20290;-52
2022/04/20 08:33:08;;;;;;;4.43;2.70;;;16.30;99.90;;;;;;5078031;28;20247;-51
2022/04/20 08:35:35;;;;;;;2.53;2.23;;;16.50;99.90;;;;;;5069695;28;20191;-52
2022/04/20 08:38:03;;;;;;;5.57;2.50;;;16.30;99.90;;;;;;5052576;28;20233;-53
2022/04/20 08:40:32;;;;;;;4.93;2.83;;;16.50;99.90;;;;;;5075042;28;20240;-53
2022/04/20 08:43:01;;;;;;;3.00;2.47;;;16.80;99.90;;;;;;5071968;28;20203;-53
2022/04/20 08:45:28;;;;;;;3.53;2.83;;;17.20;99.90;;;;;;5069225;28;20230;-53
2022/04/20 08:47:57;;;;;;;5.23;2.70;;;17.00;99.90;;;;;;5067228;28;21054;-53
2022/04/20 08:50:25;;;;;;;4.10;2.23;;;17.40;99.90;;;;;;5063192;28;20242;-53
2022/04/20 08:52:55;;;;;;;3.13;2.40;;;17.60;99.90;;;;;;5067980;28;20290;-53
2022/04/20 08:55:22;;;;;;;2.87;2.57;;;17.80;99.90;;;;;;5067996;28;20589;-52
2022/04/20 08:57:52;;;;;;;6.20;2.60;;;18.00;99.90;;;;;;5051638;28;20261;-53
2022/04/20 09:00:25;;;;;;;7.00;2.77;;;18.20;99.90;;;;;;5070129;28;20674;-53
2022/04/20 09:02:55;;;;;;;4.00;2.57;;;18.40;99.90;;;;;;5071133;28;20296;-53
2022/04/20 09:05:25;;;;;;;3.13;2.83;;;18.30;99.90;;;;;;5055882;28;20238;-52
2022/04/20 09:07:52;;;;;;;5.67;2.60;;;17.60;99.90;;;;;;5075115;28;20233;-54
2022/04/20 09:10:20;;;;;;;4.07;2.67;;;18.10;99.90;;;;;;5072137;28;20195;-52
2022/04/20 09:13:01;;;;;;;2.73;2.50;;;18.30;99.90;;;;;;5072932;28;20286;-53
2022/04/20 09:15:31;;;;;;;5.20;2.50;;;18.50;99.90;;;;;;5069381;28;20199;-52
2022/04/20 09:18:02;;;;;;;4.07;2.57;;;18.10;99.90;;;;;;5062622;28;20199;-53
2022/04/20 09:20:31;;;;;;;2.80;2.60;;;18.40;99.90;;;;;;5065570;28;20195;-53
2022/04/20 09:23:02;;;;;;;3.87;2.03;;;18.30;99.90;;;;;;5070573;28;20225;-53
2022/04/20 09:25:31;;;;;;;2.20;1.80;;;18.40;99.90;;;;;;5069680;28;20197;-53
2022/04/20 09:27:58;;;;;;;3.53;2.07;;;18.80;99.90;;;;;;5068503;28;20227;-54
2022/04/20 09:30:32;;;;;;;4.27;2.40;;;18.90;99.90;;;;;;5067932;28;20196;-53
2022/04/20 09:32:59;;;;;;;2.80;2.57;;;18.80;99.90;;;;;;5063707;28;20272;-53
2022/04/20 09:35:26;;;;;;;4.10;3.07;;;18.80;99.90;;;;;;5076453;28;20724;-53
2022/04/20 09:38:07;;;;;;;4.40;2.87;;;17.80;99.90;;;;;;5067517;28;20718;-54
2022/04/20 09:40:37;;;;;;;6.63;3.30;;;18.20;99.90;;;;;;5072462;28;20202;-53
2022/04/20 09:43:15;;;;;;;3.80;3.30;;;18.20;99.90;;;;;;5067614;28;20206;-54
2022/04/20 09:45:42;;;;;;;4.37;3.00;;;18.20;99.90;;;;;;5067831;28;20708;-52
2022/04/20 09:51:12;;;;;;;4.60;3.53;;;18.10;99.90;;;;;;5061163;28;20642;-52
2022/04/20 09:53:40;;;;;;;4.13;2.57;;;18.00;99.90;;;;;;5059939;28;20293;-53
2022/04/20 09:56:21;;;;;;;3.77;2.30;;;18.30;99.90;;;;;;5054796;28;20854;-53
2022/04/20 09:59:00;;;;;;;2.07;1.87;;;18.60;99.90;;;;;;5062077;28;20651;-53
2022/04/20 10:01:32;;;;;;;6.10;2.50;;;18.40;99.90;;;;;;5058109;28;20210;-55
2022/04/20 10:04:01;;;;;;;3.30;2.87;;;18.50;99.90;;;;;;5053969;28;20666;-52
2022/04/20 10:06:29;;;;;;;3.87;2.83;;;18.30;99.90;;;;;;5064689;28;20215;-53
2022/04/20 10:08:56;;;;;;;5.47;2.93;;;18.30;99.90;;;;;;5067066;28;20220;-52
2022/04/20 10:11:23;;;;;;;4.03;2.80;;;18.40;99.90;;;;;;5067193;28;20726;-53
2022/04/20 10:16:46;;;;;;;7.63;3.33;;;18.10;99.90;;;;;;5071578;28;20289;-52
2022/04/20 10:19:13;;;;;;;5.73;2.90;;;18.00;99.90;;;;;;5064917;28;20209;-53
2022/04/20 10:21:49;;;;;;;8.10;3.63;;;18.20;99.90;;;;;;5052028;28;20311;-53
2022/04/20 10:24:19;;;;;;;4.30;3.20;;;18.20;99.90;;;;;;5060565;28;20257;-53
2022/04/20 10:26:47;;;;;;;3.90;2.90;;;18.30;99.90;;;;;;5066994;28;20211;-53
2022/04/20 10:29:29;;;;;;;4.13;2.40;;;18.30;99.90;;;;;;5061831;28;20220;-53
2022/04/20 10:32:10;;;;;;;2.40;2.20;;;18.20;99.90;;;;;;5067468;28;20203;-53
2022/04/20 10:34:38;;;;;;;2.67;2.43;;;18.10;99.90;;;;;;5065189;28;20233;-53
2022/04/20 10:37:07;;;;;;;3.67;2.23;;;18.10;99.90;;;;;;5072375;28;20195;-53
2022/04/20 10:39:36;;;;;;;4.13;2.53;;;18.00;99.90;;;;;;5068197;28;20200;-52
2022/04/20 10:42:11;;;;;;;3.43;2.10;;;18.20;99.90;;;;;;5053392;28;20658;-52
2022/04/20 10:44:51;;;;;;;3.83;3.20;;;18.30;99.90;;;;;;5067794;28;20245;-53
2022/04/20 10:47:25;;;;;;;3.37;2.57;;;18.40;99.90;;;;;;5063948;28;20251;-53
2022/04/20 10:50:08;;;;;;;4.93;2.47;;;18.40;99.90;;;;;;5066188;28;20196;-53
2022/04/20 10:52:36;;;;;;;3.10;2.57;;;18.30;99.90;;;;;;5068489;28;20196;-53
2022/04/20 10:55:09;;;;;;;2.57;2.20;;;18.30;99.90;;;;;;5053363;28;20202;-53
2022/04/20 10:57:38;;;;;;;3.83;2.77;;;18.50;99.90;;;;;;5069075;28;20263;-52
2022/04/20 11:00:36;;;;;;;4.00;2.50;;;17.80;99.90;;;;;;5068782;28;20570;-54
2022/04/20 11:03:08;;;;;;;3.00;2.70;;;17.30;99.90;;;;;;5046110;28;20198;-53
2022/04/20 11:05:50;;;;;;;3.77;2.63;;;17.30;99.90;;;;;;5066218;28;20638;-52
2022/04/20 11:08:17;;;;;;;4.50;2.80;;;18.00;99.90;;;;;;5070586;28;20554;-53
2022/04/20 11:20:07;;;;;;;2.70;1.90;;;18.30;99.90;;;;;;4980079;28;20662;-53
2022/04/20 11:22:44;;;;;;;2.30;2.07;;;18.50;99.90;;;;;;4982155;28;20230;-54
2022/04/20 11:25:11;;;;;;;4.37;2.53;;;18.70;99.90;;;;;;4987846;28;20221;-53
2022/04/20 11:27:38;;;;;;;3.77;2.07;;;18.90;99.90;;;;;;4984770;28;20364;-53
2022/04/20 11:30:06;;;;;;;6.73;2.60;;;19.00;99.90;;;;;;4984703;28;20228;-52
2022/04/20 11:32:34;;;;;;;3.13;2.43;;;18.90;99.90;;;;;;4988822;28;20230;-52
2022/04/20 11:35:05;;;;;;;3.93;2.33;;;19.20;99.90;;;;;;4982226;28;20711;-53
2022/04/20 11:37:33;;;;;;;2.47;2.27;;;19.50;99.90;;;;;;4986757;28;20237;-52
2022/04/20 11:40:12;;;;;;;4.63;2.77;;;19.50;99.90;;;;;;4984479;28;20194;-52
2022/04/20 11:42:40;;;;;;;4.17;2.57;;;19.40;99.90;;;;;;4983982;28;20296;-53
2022/04/20 11:45:07;;;;;;;3.63;2.80;;;19.90;99.90;;;;;;4982345;28;20633;-53
2022/04/20 11:47:39;;;;;;;4.77;3.53;;;20.20;99.90;;;;;;4968784;28;20821;-53
2022/04/20 11:50:08;;;;;;;2.77;2.57;;;20.00;99.90;;;;;;4985727;28;20312;-53
2022/04/20 11:52:36;;;;;;;2.67;2.47;;;20.10;99.90;;;;;;5074215;28;20640;-53
2022/04/20 11:55:05;;;;;;;2.83;2.53;;;20.30;99.90;;;;;;5068077;28;20545;-53
2022/04/20 11:57:32;;;;;;;2.43;2.20;;;20.30;99.90;;;;;;5070227;28;20241;-53
2022/04/20 12:00:00;;;;;;;3.60;2.53;;;20.70;99.90;;;;;;5075800;28;20205;-55
2022/04/20 12:02:27;;;;;;;4.67;2.30;;;20.60;99.90;;;;;;5073838;28;20204;-52
2022/04/20 12:05:13;;;;;;;4.70;2.50;;;20.50;99.90;;;;;;5073168;28;20290;-52
2022/04/20 12:07:40;;;;;;;3.17;2.50;;;20.40;99.90;;;;;;5069091;28;20227;-55
2022/04/20 12:10:08;;;;;;;3.07;2.60;;;20.40;99.90;;;;;;5069217;28;20195;-52
2022/04/20 12:12:35;;;;;;;2.87;2.60;;;20.80;99.90;;;;;;5070770;28;20293;-53
2022/04/20 12:15:08;;;;;;;3.70;2.20;;;20.60;99.90;;;;;;5070780;28;20601;-53
2022/04/20 12:17:36;;;;;;;4.50;3.00;;;21.20;99.90;;;;;;5050881;28;20211;-52
2022/04/20 12:20:04;;;;;;;6.10;3.20;;;21.10;99.90;;;;;;5067252;28;20649;-53
2022/04/20 12:22:31;;;;;;;3.43;2.00;;;21.10;99.90;;;;;;5065243;28;20257;-53
2022/04/20 12:25:06;;;;;;;3.13;2.00;;;21.30;99.90;;;;;;5068101;28;20551;-53
2022/04/20 12:27:50;;;;;;;3.23;2.13;;;20.90;99.90;;;;;;5070099;28;20330;-53
2022/04/20 12:30:34;;;;;;;3.33;2.17;;;20.80;99.90;;;;;;5069105;28;20229;-53
2022/04/20 12:33:04;;;;;;;4.27;2.13;;;21.10;99.90;;;;;;5066390;28;20503;-53
2022/04/20 12:35:32;;;;;;;2.23;1.90;;;21.40;99.90;;;;;;5066851;28;20199;-52
2022/04/20 12:37:59;;;;;;;4.07;2.70;;;21.40;99.90;;;;;;5070779;28;20238;-53
2022/04/20 12:40:27;;;;;;;3.37;2.37;;;21.20;99.90;;;;;;5065421;28;20339;-53
2022/04/20 12:43:05;;;;;;;2.40;2.10;;;20.80;99.90;;;;;;5068104;28;20202;-53
2022/04/20 12:45:36;;;;;;;3.23;2.33;;;21.10;99.90;;;;;;5069142;28;20229;-53
2022/04/20 12:48:04;;;;;;;2.90;2.23;;;20.70;99.90;;;;;;5065376;28;20213;-52
2022/04/20 12:50:37;;;;;;;4.77;2.03;;;21.10;99.90;;;;;;5066231;28;20192;-52
2022/04/20 12:53:04;;;;;;;3.63;2.30;;;21.70;99.90;;;;;;5064077;28;20580;-51
2022/04/20 12:55:35;;;;;;;3.60;2.93;;;21.40;99.90;;;;;;5068683;28;20522;-51
2022/04/20 13:03:46;;;;;;;3.13;2.20;;;21.90;99.90;;;;;;5066732;28;20333;-54
2022/04/20 13:06:13;;;;;;;2.50;2.30;;;22.10;99.90;;;;;;5069631;28;20226;-53
2022/04/20 13:08:43;;;;;;;3.83;2.37;;;21.40;99.90;;;;;;5051921;28;20238;-54
2022/04/20 13:11:16;;;;;;;3.77;1.97;;;22.00;99.90;;;;;;5067953;28;20202;-53
2022/04/20 13:14:03;;;;;;;5.43;2.60;;;22.50;99.90;;;;;;5062872;28;20245;-53
2022/04/20 13:16:30;;;;;;;4.70;2.43;;;22.10;99.90;;;;;;5055060;28;20243;-54
2022/04/20 13:18:57;;;;;;;3.17;2.70;;;21.70;99.90;;;;;;5057576;28;20241;-54
2022/04/20 13:21:24;;;;;;;5.00;2.47;;;21.30;99.90;;;;;;5062022;28;20307;-54
2022/04/20 13:23:52;;;;;;;3.20;2.30;;;21.70;99.90;;;;;;5057264;28;20258;-52
2022/04/20 13:29:05;;;;;;;2.90;2.13;;;21.50;99.90;;;;;;5055869;28;20262;-54
2022/04/20 13:31:32;;;;;;;5.30;2.80;;;21.40;99.90;;;;;;5057559;28;20294;-53
2022/04/20 13:33:59;;;;;;;4.00;2.60;;;21.50;99.90;;;;;;5058839;28;20213;-53